Accueil
METAR-TAF:

METAR-TAF

Aéroports :

Aéroport de Toulon-Hyères

Toulon, France

latitude: 43-06N, longitude: 006-09E, altitude: 3 m

Observation

Le bulletin a été fait il y a 19 minutes, à 03:00 UTC
Vent 4 kt de nord/nord-est
Température 19°C
Humidité 83%
Pression 1018 hPa
Visibilité 10 km ou plus
pas de nuages en-dessous de 1500 mètres et pas de cumulonimbus.

METAR: LFTH 200300Z AUTO 02004KT CAVOK 19/16 Q1018 NOSIG

Heure: 05:19 (03:19 UTC)

Prévision

Le bulletin a été fait il y a 1 heure et 19 minutes, à 02:00 UTC
Prévision valable du 20 à 03 UTC au 21 à 03 UTC
Vent 3 kt de direction variable
Visibilité 10 km ou plus
pas de nuages en-dessous de 1500 mètres et pas de cumulonimbus.
Evoluant progressivement
du 20 à 06 UTC au 20 à 09 UTC
Vent 9 kt de est/sud-est
Evoluant progressivement
du 20 à 18 UTC au 20 à 21 UTC
Vent 3 kt de direction variable

TAF: LFTH 200200Z 2003/2103 VRB03KT CAVOK BECMG 2006/2009 12009KT BECMG 2018/2021 VRB03KT

Observations et prévisions météorologiques de plus de 4000 aéroports (messages METAR et TAF).

Les stations disponibles sont représentées par des disques jaunes et rouges sur la carte.

Passer la souris dessus pour voir le nom de la station.

Cliquer dessus pour voir les observations et prévisions météorologiques.

Pour changer de carte: cliquez sur les boutons verts avec une croix noire pour zoomer, sur le bouton vert avec un tiret pour effectuer un zoom arrière, ou sur les flèches vertes pour les cartes adjacentes.


METAR-TAF: